createdAt,value
2018-03-22T00:01:28.755Z,19.40
2018-03-22T00:03:54.954Z,18.07
2018-03-22T00:06:20.966Z,17.37
2018-03-22T00:08:47.000Z,17.33
2018-03-22T00:11:13.014Z,23.30
2018-03-22T00:13:39.035Z,18.33
2018-03-22T00:16:05.046Z,17.87
2018-03-22T00:18:31.662Z,17.57
2018-03-22T00:20:57.671Z,22.17
2018-03-22T00:23:24.667Z,22.10
2018-03-22T00:25:51.059Z,19.03
2018-03-22T00:28:17.074Z,21.30
2018-03-22T00:30:43.119Z,26.30
2018-03-22T00:33:09.142Z,21.93
2018-03-22T00:35:35.163Z,26.27
2018-03-22T00:38:01.273Z,26.53
2018-03-22T00:40:28.016Z,23.23
2018-03-22T00:42:54.071Z,21.27
2018-03-22T00:45:20.112Z,24.67
2018-03-22T00:47:46.131Z,26.70
2018-03-22T00:50:12.526Z,23.43
2018-03-22T00:52:38.539Z,19.37
2018-03-22T00:55:05.499Z,20.33
2018-03-22T00:57:31.534Z,25.57
2018-03-22T00:59:57.544Z,27.20
2018-03-22T01:02:23.619Z,28.43
2018-03-22T01:04:49.836Z,30.17
2018-03-22T01:07:16.350Z,23.23
2018-03-22T01:09:42.371Z,24.40
2018-03-22T01:12:08.386Z,24.33
2018-03-22T01:14:34.444Z,26.53
2018-03-22T01:17:00.473Z,24.70
2018-03-22T01:19:26.476Z,28.53
2018-03-22T01:21:53.314Z,25.13
2018-03-22T01:24:19.356Z,24.43
2018-03-22T01:26:45.411Z,21.83
2018-03-22T01:29:11.475Z,30.03
2018-03-22T01:31:37.475Z,26.77
2018-03-22T01:34:04.890Z,30.70
2018-03-22T01:36:30.965Z,26.00
2018-03-22T01:38:57.032Z,25.50
2018-03-22T01:41:23.038Z,25.93
2018-03-22T01:43:49.070Z,31.13
2018-03-22T01:46:15.431Z,28.27
2018-03-22T01:48:41.823Z,28.03
2018-03-22T01:51:07.878Z,28.27
2018-03-22T01:53:33.897Z,26.00
2018-03-22T01:55:59.925Z,28.80
2018-03-22T01:58:25.923Z,26.40
2018-03-22T02:00:51.975Z,27.33
2018-03-22T02:03:18.074Z,30.07
2018-03-22T02:05:45.066Z,22.37
2018-03-22T02:08:11.066Z,24.67
2018-03-22T02:10:37.087Z,26.67
2018-03-22T02:13:03.147Z,25.87
2018-03-22T02:15:29.178Z,25.77
2018-03-22T02:17:55.934Z,28.37
2018-03-22T02:20:21.948Z,32.60
2018-03-22T02:22:47.978Z,30.67
2018-03-22T02:25:14.303Z,34.63
2018-03-22T02:27:41.803Z,26.93
2018-03-22T02:30:08.158Z,27.53
2018-03-22T02:32:34.167Z,25.33
2018-03-22T02:35:00.165Z,30.03
2018-03-22T02:37:26.272Z,23.47
2018-03-22T02:39:52.365Z,28.30
2018-03-22T02:42:18.855Z,27.33
2018-03-22T02:44:44.972Z,30.40
2018-03-22T02:47:11.039Z,28.97
2018-03-22T02:49:37.396Z,28.63
2018-03-22T02:52:03.455Z,27.53
2018-03-22T02:54:29.466Z,30.13
2018-03-22T02:56:55.491Z,26.10
2018-03-22T02:59:21.536Z,29.57
2018-03-22T03:01:47.572Z,27.37
2018-03-22T03:04:13.602Z,27.40
2018-03-22T03:06:39.628Z,27.00
2018-03-22T03:09:05.869Z,25.63
2018-03-22T03:11:31.895Z,27.97
2018-03-22T03:13:57.938Z,26.23
2018-03-22T03:16:23.975Z,29.70
2018-03-22T03:18:50.033Z,26.67
2018-03-22T03:21:16.078Z,24.93
2018-03-22T03:23:42.109Z,24.93
2018-03-22T03:26:08.142Z,24.70
2018-03-22T03:28:34.215Z,26.20
2018-03-22T03:31:00.231Z,25.83
2018-03-22T03:33:26.251Z,29.30
2018-03-22T03:35:52.359Z,30.40
2018-03-22T03:38:18.439Z,26.40
2018-03-22T03:40:44.979Z,30.90
2018-03-22T03:43:10.987Z,25.60
2018-03-22T03:45:37.051Z,30.07
2018-03-22T03:48:03.239Z,27.27
2018-03-22T03:50:29.264Z,29.63
2018-03-22T03:52:55.279Z,23.17
2018-03-22T03:55:21.310Z,27.73
2018-03-22T03:57:47.340Z,26.90
2018-03-22T04:00:13.446Z,25.87
2018-03-22T04:02:39.502Z,27.37
2018-03-22T04:05:06.299Z,27.33
2018-03-22T04:07:32.360Z,27.77
2018-03-22T04:09:58.368Z,26.50
2018-03-22T04:12:24.466Z,27.10
2018-03-22T04:14:50.500Z,26.50
2018-03-22T04:17:16.559Z,28.87
2018-03-22T04:19:42.614Z,29.60
2018-03-22T04:22:08.618Z,26.97
2018-03-22T04:24:34.656Z,26.57
2018-03-22T04:27:00.814Z,27.17
2018-03-22T04:29:26.868Z,22.30
2018-03-22T04:31:52.910Z,29.03
2018-03-22T04:34:18.985Z,21.60
2018-03-22T04:36:44.998Z,26.97
2018-03-22T04:39:11.062Z,23.47
2018-03-22T04:41:37.066Z,21.53
2018-03-22T04:44:03.137Z,26.93
2018-03-22T04:46:29.255Z,20.97
2018-03-22T04:48:55.250Z,26.17
2018-03-22T04:51:21.270Z,25.63
2018-03-22T04:53:47.302Z,28.70
2018-03-22T04:56:13.371Z,27.20
2018-03-22T04:58:39.370Z,26.27
2018-03-22T05:01:05.400Z,29.80
2018-03-22T05:03:31.618Z,28.17
2018-03-22T05:05:57.646Z,24.53
2018-03-22T05:08:23.698Z,31.53
2018-03-22T05:10:49.710Z,33.43
2018-03-22T05:13:15.747Z,30.57
2018-03-22T05:15:41.778Z,30.17
2018-03-22T05:18:07.791Z,34.83
2018-03-22T05:20:33.831Z,35.77
2018-03-22T05:22:59.846Z,37.47
2018-03-22T05:25:25.895Z,34.80
2018-03-22T05:27:51.966Z,30.40
2018-03-22T05:30:18.012Z,25.80
2018-03-22T05:32:45.235Z,35.33
2018-03-22T05:35:11.274Z,27.97
2018-03-22T05:37:37.280Z,29.20
2018-03-22T05:40:03.358Z,23.47
2018-03-22T05:42:29.417Z,27.93
2018-03-22T05:44:55.426Z,39.37
2018-03-22T05:47:21.467Z,33.17
2018-03-22T05:49:47.778Z,30.03
2018-03-22T05:52:13.859Z,34.43
2018-03-22T05:54:39.879Z,31.83
2018-03-22T05:57:06.471Z,28.03
2018-03-22T05:59:33.520Z,32.30
2018-03-22T06:01:59.570Z,31.87
2018-03-22T06:04:25.608Z,40.27
2018-03-22T06:06:51.915Z,40.73
2018-03-22T06:09:17.921Z,36.47
2018-03-22T06:11:43.964Z,35.50
2018-03-22T06:14:09.990Z,38.90
2018-03-22T06:16:36.010Z,43.03
2018-03-22T06:19:02.099Z,37.37
2018-03-22T06:21:28.105Z,40.67
2018-03-22T06:23:54.190Z,41.63
2018-03-22T06:26:20.194Z,51.83
2018-03-22T06:28:46.239Z,43.53
2018-03-22T06:31:12.843Z,46.27
2018-03-22T06:33:39.074Z,39.87
2018-03-22T06:42:47.356Z,31.87
2018-03-22T06:45:13.394Z,37.83
2018-03-22T06:47:39.440Z,43.70
2018-03-22T06:50:05.811Z,37.00
2018-03-22T06:52:31.822Z,39.20
2018-03-22T06:54:57.834Z,39.40
2018-03-22T06:57:23.878Z,33.70
2018-03-22T06:59:49.932Z,32.40
2018-03-22T07:02:15.949Z,39.07
2018-03-22T07:04:42.354Z,38.50
2018-03-22T07:07:08.386Z,32.70
2018-03-22T07:09:34.419Z,34.37
2018-03-22T07:12:00.503Z,32.30
2018-03-22T07:14:27.283Z,39.10
2018-03-22T07:16:53.315Z,31.63
2018-03-22T07:19:19.338Z,33.00
2018-03-22T07:21:45.342Z,30.77
2018-03-22T07:24:11.427Z,31.13
2018-03-22T07:26:38.206Z,32.13
2018-03-22T07:29:04.366Z,50.30
2018-03-22T07:31:30.376Z,29.40
2018-03-22T07:33:56.559Z,25.20
2018-03-22T07:36:22.646Z,34.97
2018-03-22T07:38:48.687Z,32.63
2018-03-22T07:41:14.719Z,36.00
2018-03-22T07:43:41.687Z,33.27
2018-03-22T07:46:08.596Z,37.07
2018-03-22T07:48:34.643Z,44.83
2018-03-22T07:51:01.119Z,47.63
2018-03-22T07:53:27.153Z,43.03
2018-03-22T07:55:53.180Z,36.50
2018-03-22T07:58:19.218Z,39.03
2018-03-22T08:00:45.348Z,41.63
2018-03-22T08:03:15.583Z,35.77
2018-03-22T08:05:42.391Z,36.47
2018-03-22T08:08:08.403Z,39.83
2018-03-22T08:10:34.439Z,33.43
2018-03-22T08:13:00.491Z,42.90
2018-03-22T08:15:27.265Z,43.43
2018-03-22T08:17:53.324Z,30.73
2018-03-22T08:20:19.345Z,39.07
2018-03-22T08:22:45.379Z,37.27
2018-03-22T08:25:11.414Z,35.93
2018-03-22T08:27:37.799Z,39.63
2018-03-22T08:30:03.852Z,35.03
2018-03-22T08:32:29.850Z,36.87
2018-03-22T08:34:56.067Z,37.47
2018-03-22T08:37:22.362Z,34.40
2018-03-22T08:39:48.438Z,30.37
2018-03-22T08:42:14.695Z,27.13
2018-03-22T08:44:40.726Z,32.10
2018-03-22T08:47:06.746Z,26.50
2018-03-22T08:49:32.836Z,32.50
2018-03-22T08:51:58.918Z,31.07
2018-03-22T08:54:24.983Z,24.60
2018-03-22T08:56:51.026Z,29.43
2018-03-22T08:59:17.076Z,25.17
2018-03-22T09:01:43.123Z,27.33
2018-03-22T09:04:09.197Z,30.30
2018-03-22T09:06:35.194Z,31.47
2018-03-22T09:09:01.262Z,29.73
2018-03-22T09:11:27.876Z,28.10
2018-03-22T09:13:53.894Z,23.77
2018-03-22T09:16:19.930Z,26.57
2018-03-22T09:18:45.939Z,23.80
2018-03-22T09:21:12.378Z,28.47
2018-03-22T09:23:38.399Z,26.13
2018-03-22T09:26:04.471Z,23.53
2018-03-22T09:28:30.790Z,32.67
2018-03-22T09:30:56.795Z,26.40
2018-03-22T09:33:22.844Z,31.57
2018-03-22T09:35:48.862Z,24.93
2018-03-22T09:38:14.937Z,30.03
2018-03-22T09:40:40.970Z,29.47
2018-03-22T09:43:07.041Z,25.63
2018-03-22T09:45:33.438Z,30.90
2018-03-22T09:47:59.754Z,24.17
2018-03-22T09:50:25.754Z,23.47
2018-03-22T09:52:51.812Z,19.67
2018-03-22T09:55:17.875Z,24.60
2018-03-22T09:57:43.914Z,20.23
2018-03-22T10:00:25.482Z,18.27
2018-03-22T10:02:51.561Z,21.87
2018-03-22T10:05:17.520Z,25.97
2018-03-22T10:07:43.583Z,18.30
2018-03-22T10:10:09.646Z,19.73
2018-03-22T10:12:35.692Z,13.60
2018-03-22T10:15:01.726Z,14.17
2018-03-22T10:17:27.883Z,14.37
2018-03-22T10:19:53.907Z,17.33
2018-03-22T10:22:19.941Z,13.83
2018-03-22T10:24:46.259Z,12.57
2018-03-22T10:27:13.134Z,13.47
2018-03-22T10:29:39.722Z,13.30
2018-03-22T10:32:05.786Z,13.20
2018-03-22T10:34:31.802Z,11.43
2018-03-22T10:36:57.826Z,9.30
2018-03-22T10:39:23.838Z,16.50
2018-03-22T10:41:50.655Z,8.37
2018-03-22T10:44:16.687Z,14.60
2018-03-22T10:46:42.842Z,11.73
2018-03-22T10:49:08.973Z,13.67
2018-03-22T10:51:34.986Z,8.03
2018-03-22T10:54:01.103Z,11.13
2018-03-22T10:56:27.135Z,9.60
2018-03-22T10:58:53.182Z,9.57
2018-03-22T11:01:25.227Z,9.33
2018-03-22T11:03:53.015Z,13.60
2018-03-22T11:06:19.095Z,14.57
2018-03-22T11:08:45.916Z,11.03
2018-03-22T11:11:11.978Z,14.87
2018-03-22T11:13:38.791Z,15.57
2018-03-22T11:16:04.910Z,11.70
2018-03-22T11:18:31.007Z,15.43
2018-03-22T11:20:57.006Z,19.20
2018-03-22T11:23:23.051Z,17.80
2018-03-22T11:25:49.074Z,21.03
2018-03-22T11:28:15.498Z,18.80
2018-03-22T11:30:41.587Z,20.30
2018-03-22T11:33:07.620Z,23.60
2018-03-22T11:35:34.413Z,25.60
2018-03-22T11:38:00.430Z,23.50
2018-03-22T11:40:26.631Z,24.00
2018-03-22T11:42:52.807Z,28.63
2018-03-22T11:45:18.822Z,36.20
2018-03-22T11:47:44.999Z,32.90
2018-03-22T11:50:11.554Z,30.73
2018-03-22T11:52:37.665Z,35.27
2018-03-22T11:55:03.724Z,28.00
2018-03-22T11:57:29.758Z,34.73
2018-03-22T11:59:55.819Z,34.50
2018-03-22T12:02:21.939Z,33.80
2018-03-22T12:04:48.095Z,34.13
2018-03-22T12:07:14.237Z,57.03
2018-03-22T12:09:40.259Z,34.20
2018-03-22T12:12:06.312Z,38.93
2018-03-22T12:14:32.351Z,30.30
2018-03-22T12:16:58.363Z,42.20
2018-03-22T12:19:24.886Z,43.80
2018-03-22T12:21:50.896Z,51.07
2018-03-22T12:24:16.963Z,43.97
2018-03-22T12:26:42.979Z,48.57
2018-03-22T12:29:09.017Z,50.90
2018-03-22T12:31:35.895Z,62.33
2018-03-22T12:34:01.912Z,44.13
2018-03-22T12:36:27.975Z,48.30
2018-03-22T12:38:53.994Z,56.83
2018-03-22T12:41:20.019Z,45.97
2018-03-22T12:43:46.166Z,49.97
2018-03-22T12:46:12.168Z,55.90
2018-03-22T12:48:38.251Z,40.43
2018-03-22T12:51:05.046Z,47.03
2018-03-22T12:53:31.068Z,51.80
2018-03-22T12:55:57.119Z,49.13
2018-03-22T12:58:23.146Z,45.70
2018-03-22T13:00:50.127Z,42.60
2018-03-22T13:03:16.199Z,49.77
2018-03-22T13:05:42.234Z,53.73
2018-03-22T13:08:08.310Z,40.47
2018-03-22T13:10:34.351Z,53.17
2018-03-22T13:13:00.374Z,45.37
2018-03-22T13:15:26.543Z,39.60
2018-03-22T13:17:53.316Z,40.80
2018-03-22T13:20:19.379Z,36.60
2018-03-22T13:22:45.779Z,32.90
2018-03-22T13:25:11.791Z,47.73
2018-03-22T13:27:37.855Z,29.70
2018-03-22T13:30:03.883Z,29.90
2018-03-22T13:32:29.923Z,25.03
2018-03-22T13:34:55.939Z,32.10
2018-03-22T13:37:22.005Z,34.37
2018-03-22T13:39:48.107Z,36.60
2018-03-22T13:42:14.143Z,29.40
2018-03-22T13:44:40.195Z,28.50
2018-03-22T13:47:06.223Z,29.43
2018-03-22T13:52:26.464Z,36.47
2018-03-22T13:54:52.805Z,29.27
2018-03-22T13:57:18.814Z,29.20
2018-03-22T13:59:45.034Z,33.37
2018-03-22T14:02:11.137Z,30.17
2018-03-22T14:04:37.199Z,27.60
2018-03-22T14:07:03.212Z,24.10
2018-03-22T14:09:29.235Z,35.67
2018-03-22T14:11:55.254Z,23.23
2018-03-22T14:14:21.590Z,26.60
2018-03-22T14:16:47.586Z,29.03
2018-03-22T14:19:13.622Z,26.17
2018-03-22T14:21:39.666Z,34.97
2018-03-22T14:24:06.287Z,24.83
2018-03-22T14:26:32.411Z,26.40
2018-03-22T14:28:58.424Z,27.00
2018-03-22T14:31:24.578Z,28.97
2018-03-22T14:33:50.616Z,22.23
2018-03-22T14:36:16.691Z,31.17
2018-03-22T14:38:42.861Z,25.60
2018-03-22T14:41:08.833Z,31.77
2018-03-22T14:43:34.978Z,32.70
2018-03-22T14:46:00.995Z,31.07
2018-03-22T14:48:27.054Z,33.77
2018-03-22T14:50:53.123Z,27.50
2018-03-22T14:53:19.164Z,35.07
2018-03-22T14:55:45.175Z,27.53
2018-03-22T14:58:11.203Z,21.00
2018-03-22T15:00:37.241Z,23.10
2018-03-22T15:03:03.340Z,27.57
2018-03-22T15:05:30.206Z,28.43
2018-03-22T15:07:56.312Z,25.50
2018-03-22T15:10:22.433Z,23.13
2018-03-22T15:12:48.575Z,22.37
2018-03-22T15:15:14.614Z,25.33
2018-03-22T15:17:40.655Z,20.90
2018-03-22T15:20:06.728Z,26.87
2018-03-22T15:22:33.499Z,19.83
2018-03-22T15:24:59.559Z,20.30
2018-03-22T15:27:25.624Z,20.50
2018-03-22T15:29:52.370Z,21.57
2018-03-22T15:32:18.415Z,17.33
2018-03-22T15:34:44.543Z,21.30
2018-03-22T15:37:10.574Z,24.03
2018-03-22T15:39:36.639Z,21.13
2018-03-22T15:42:02.712Z,20.80
2018-03-22T15:44:28.738Z,17.73
2018-03-22T15:46:54.820Z,21.80
2018-03-22T15:49:20.895Z,21.33
2018-03-22T15:51:46.978Z,16.07
2018-03-22T15:54:12.984Z,20.27
2018-03-22T15:56:39.011Z,15.90
2018-03-22T15:59:05.086Z,13.57
2018-03-22T16:01:31.316Z,20.87
2018-03-22T16:03:57.879Z,14.40
2018-03-22T16:06:23.964Z,17.43
2018-03-22T16:08:49.939Z,25.93
2018-03-22T16:11:16.083Z,14.93
2018-03-22T16:13:42.884Z,21.50
2018-03-22T16:16:08.931Z,19.40
2018-03-22T16:18:34.968Z,18.00
2018-03-22T16:21:01.742Z,12.77
2018-03-22T16:23:28.441Z,15.70
2018-03-22T16:25:54.549Z,16.50
2018-03-22T16:28:20.619Z,18.10
2018-03-22T16:30:46.754Z,13.83
2018-03-22T16:33:12.843Z,15.43
2018-03-22T16:35:38.867Z,18.20
2018-03-22T16:38:05.355Z,34.83
2018-03-22T16:40:31.682Z,27.93
2018-03-22T16:42:57.774Z,30.10
2018-03-22T16:45:23.809Z,29.00
2018-03-22T16:47:49.906Z,34.97
2018-03-22T16:50:16.693Z,26.10
2018-03-22T16:52:42.716Z,38.70
2018-03-22T16:55:08.798Z,38.93
2018-03-22T16:57:36.003Z,27.60
2018-03-22T17:00:02.077Z,29.37
2018-03-22T17:02:28.056Z,37.33
2018-03-22T17:04:54.095Z,35.07
2018-03-22T17:07:20.498Z,34.03
2018-03-22T17:09:46.575Z,39.93
2018-03-22T17:12:13.476Z,37.67
2018-03-22T17:14:39.523Z,32.17
2018-03-22T17:17:06.591Z,31.10
2018-03-22T17:19:33.286Z,36.00
2018-03-22T17:22:00.120Z,27.57
2018-03-22T17:24:26.143Z,27.43
2018-03-22T17:26:52.264Z,33.13
2018-03-22T17:29:18.307Z,30.80
2018-03-22T17:31:45.677Z,26.23
2018-03-22T17:34:12.407Z,24.30
2018-03-22T17:36:38.508Z,28.00
2018-03-22T17:39:05.999Z,19.67
2018-03-22T17:41:32.966Z,22.77
2018-03-22T17:43:59.243Z,24.57
2018-03-22T17:46:25.495Z,28.17
2018-03-22T17:48:52.203Z,27.07
2018-03-22T17:51:19.419Z,31.93
2018-03-22T17:53:46.295Z,31.07
2018-03-22T17:56:12.567Z,23.27
2018-03-22T17:58:38.611Z,25.20
2018-03-22T18:01:05.308Z,26.77
2018-03-22T18:03:31.457Z,27.23
2018-03-22T18:05:57.685Z,35.47
2018-03-22T18:08:23.916Z,22.90
2018-03-22T18:10:50.050Z,36.03
2018-03-22T18:13:16.190Z,31.87
2018-03-22T18:15:42.380Z,25.23
2018-03-22T18:18:09.239Z,29.23
2018-03-22T18:20:35.663Z,28.50
2018-03-22T18:23:01.851Z,28.57
2018-03-22T18:25:28.603Z,28.47
2018-03-22T18:27:55.972Z,27.80
2018-03-22T18:30:22.520Z,26.50
2018-03-22T18:32:48.776Z,28.37
2018-03-22T18:35:15.600Z,30.40
2018-03-22T18:37:41.678Z,28.70
2018-03-22T18:40:08.011Z,33.13
2018-03-22T18:42:34.134Z,31.73
2018-03-22T18:45:01.118Z,33.70
2018-03-22T18:47:27.595Z,31.80
2018-03-22T18:49:53.616Z,23.97
2018-03-22T18:52:19.638Z,33.23
2018-03-22T18:54:45.844Z,34.97
2018-03-22T18:57:12.784Z,34.37
2018-03-22T18:59:38.822Z,30.77
2018-03-22T19:02:04.978Z,37.37
2018-03-22T19:04:32.020Z,30.60
2018-03-22T19:06:58.165Z,31.10
2018-03-22T19:09:24.408Z,38.17
2018-03-22T19:11:50.487Z,34.97
2018-03-22T19:14:16.499Z,34.83
2018-03-22T19:16:42.538Z,38.27
2018-03-22T19:19:08.559Z,30.30
2018-03-22T19:21:34.667Z,36.53
2018-03-22T19:24:00.676Z,33.60
2018-03-22T19:26:26.719Z,35.97
2018-03-22T19:28:53.087Z,36.13
2018-03-22T19:31:19.125Z,33.93
2018-03-22T19:33:45.219Z,31.53
2018-03-22T19:36:12.008Z,37.37
2018-03-22T19:38:38.387Z,37.97
2018-03-22T19:41:04.467Z,31.83
2018-03-22T19:43:30.483Z,35.97
2018-03-22T19:45:56.531Z,31.97
2018-03-22T19:48:22.616Z,34.37
2018-03-22T19:50:48.663Z,33.03
2018-03-22T19:53:15.095Z,32.97
2018-03-22T19:55:41.095Z,33.40
2018-03-22T19:58:07.183Z,35.70
2018-03-22T20:00:33.359Z,36.27
2018-03-22T20:02:59.389Z,43.27
2018-03-22T20:05:25.441Z,42.10
2018-03-22T20:07:51.426Z,38.43
2018-03-22T20:10:17.874Z,48.10
2018-03-22T20:12:43.926Z,44.57
2018-03-22T20:15:10.000Z,50.17
2018-03-22T20:17:36.792Z,54.50
2018-03-22T20:20:03.727Z,50.63
2018-03-22T20:22:30.167Z,53.87
2018-03-22T20:24:56.292Z,62.63
2018-03-22T20:27:22.568Z,52.00
2018-03-22T20:29:48.643Z,60.20
2018-03-22T20:32:14.660Z,56.67
2018-03-22T20:34:40.702Z,60.00
2018-03-22T20:37:06.726Z,61.33
2018-03-22T20:39:32.867Z,56.70
2018-03-22T20:41:59.683Z,49.37
2018-03-22T20:44:25.735Z,57.93
2018-03-22T20:46:51.991Z,56.33
2018-03-22T20:49:18.770Z,62.07
2018-03-22T20:51:44.970Z,61.07
2018-03-22T20:54:10.979Z,63.10
2018-03-22T20:56:37.076Z,59.67
2018-03-22T20:59:03.538Z,54.20
2018-03-22T21:01:30.563Z,65.00
2018-03-22T21:03:57.745Z,59.50
2018-03-22T21:06:24.813Z,71.87
2018-03-22T21:08:51.651Z,69.30
2018-03-22T21:11:17.666Z,71.37
2018-03-22T21:13:43.704Z,62.43
2018-03-22T21:16:10.142Z,59.97
2018-03-22T21:18:36.185Z,66.67
2018-03-22T21:21:02.230Z,50.73
2018-03-22T21:23:28.259Z,64.27
2018-03-22T21:25:54.677Z,60.63
2018-03-22T21:28:20.695Z,76.40
2018-03-22T21:30:46.717Z,77.90
2018-03-22T21:33:12.891Z,70.83
2018-03-22T21:35:38.926Z,71.60
2018-03-22T21:38:04.970Z,75.90
2018-03-22T21:40:31.063Z,76.43
2018-03-22T21:42:57.108Z,58.93
2018-03-22T21:45:23.184Z,60.27
2018-03-22T21:47:49.239Z,68.97
2018-03-22T21:50:15.246Z,64.77
2018-03-22T21:52:45.098Z,80.43
2018-03-22T21:55:11.143Z,77.60
2018-03-22T21:57:37.223Z,57.13
2018-03-22T22:00:03.277Z,67.63
2018-03-22T22:02:29.302Z,70.37
2018-03-22T22:04:55.326Z,73.13
2018-03-22T22:07:21.367Z,79.40
2018-03-22T22:09:47.415Z,57.53
2018-03-22T22:12:13.454Z,63.43
2018-03-22T22:14:39.480Z,75.07
2018-03-22T22:17:06.257Z,75.83
2018-03-22T22:19:32.311Z,70.57
2018-03-22T22:21:58.383Z,72.40
2018-03-22T22:24:25.523Z,83.80
2018-03-22T22:26:51.534Z,76.43
2018-03-22T22:29:17.565Z,62.93
2018-03-22T22:31:43.619Z,64.97
2018-03-22T22:34:09.659Z,69.37
2018-03-22T22:36:35.678Z,64.83
2018-03-22T22:39:02.070Z,67.33
2018-03-22T22:41:28.490Z,73.93
2018-03-22T22:43:54.653Z,62.13
2018-03-22T22:46:20.800Z,67.87
2018-03-22T22:48:46.933Z,61.83
2018-03-22T22:51:13.116Z,62.07
2018-03-22T22:53:39.215Z,65.23
2018-03-22T22:56:05.271Z,73.20
2018-03-22T22:58:31.338Z,63.50
2018-03-22T23:00:57.634Z,45.90
2018-03-22T23:03:23.684Z,62.00
2018-03-22T23:05:49.711Z,52.67
2018-03-22T23:08:16.236Z,41.43
2018-03-22T23:10:42.312Z,55.67
2018-03-22T23:13:08.334Z,63.60
2018-03-22T23:15:34.363Z,65.87
2018-03-22T23:18:00.373Z,54.37
2018-03-22T23:20:26.452Z,48.77
2018-03-22T23:22:52.550Z,46.17
2018-03-22T23:25:18.553Z,65.23
2018-03-22T23:27:44.782Z,51.30
2018-03-22T23:30:11.132Z,62.83
2018-03-22T23:32:39.010Z,47.67
2018-03-22T23:35:05.122Z,75.67
2018-03-22T23:37:31.171Z,62.57
2018-03-22T23:39:57.234Z,64.73
2018-03-22T23:42:23.279Z,98.47
2018-03-22T23:44:49.359Z,56.57
2018-03-22T23:47:15.396Z,70.17
2018-03-22T23:49:41.452Z,63.30
2018-03-22T23:52:07.466Z,53.03
2018-03-22T23:54:33.839Z,69.23
2018-03-22T23:56:59.878Z,74.77
2018-03-22T23:59:25.930Z,59.23
